Time;durP1;ratioP1;P1;durP2;ratioP2;P2;SDS_P1;SDS_P2;PMS_P1;PMS_P2;Temp;Humidity;BMP_temperature;BMP_pressure;BME280_temperature;BME280_humidity;BME280_pressure;Samples;Min_cycle;Max_cycle;Signal;HPM_P1;HPM_P2
2024/04/12 00:01:15;;;;;;;7.80;5.40;;;;;;;12.81;49.25;101421.72;104053;1263;108104;-82
2024/04/12 00:03:52;;;;;;;9.50;5.80;;;;;;;12.80;49.33;101422.64;103926;1265;138385;-81
2024/04/12 00:06:20;;;;;;;10.40;5.30;;;;;;;12.80;49.37;101420.38;103695;1265;109920;-81
2024/04/12 00:08:49;;;;;;;12.20;5.50;;;;;;;12.77;49.19;101418.87;103474;1265;138759;-81
2024/04/12 00:11:18;;;;;;;9.50;5.50;;;;;;;12.75;49.33;101421.17;102659;1262;114134;-81
2024/04/12 00:13:46;;;;;;;10.90;5.60;;;;;;;12.72;49.40;101418.08;103884;1263;107786;-81
2024/04/12 00:16:17;;;;;;;7.50;5.10;;;;;;;12.71;49.41;101423.15;102821;1265;138948;-80
2024/04/12 00:18:46;;;;;;;10.00;5.50;;;;;;;12.70;49.51;101424.22;102723;1265;107692;-80
2024/04/12 00:21:14;;;;;;;9.60;5.60;;;;;;;12.67;49.63;101424.83;103406;1265;138729;-79
2024/04/12 00:23:41;;;;;;;9.00;5.90;;;;;;;12.67;49.73;101422.90;103178;1262;113576;-78
2024/04/12 00:26:11;;;;;;;11.30;5.60;;;;;;;12.66;49.84;101423.61;104086;1260;107266;-78
2024/04/12 00:28:39;;;;;;;14.00;5.70;;;;;;;12.64;49.82;101429.09;103667;1265;101021;-78
2024/04/12 00:31:13;;;;;;;9.30;5.60;;;;;;;12.62;50.07;101431.39;102929;1265;107204;-78
2024/04/12 00:33:40;;;;;;;12.20;5.60;;;;;;;12.58;50.15;101429.56;103138;1262;138849;-79
2024/04/12 00:36:11;;;;;;;10.60;6.10;;;;;;;12.58;50.34;101429.56;103279;1261;113574;-80
2024/04/12 00:38:41;;;;;;;11.60;6.10;;;;;;;12.56;50.39;101426.80;102797;1265;139940;-80
2024/04/12 00:41:14;;;;;;;10.40;6.00;;;;;;;12.55;50.62;101425.76;103095;1265;100527;-80
2024/04/12 00:43:47;;;;;;;11.20;5.70;;;;;;;12.55;50.66;101426.29;102775;1262;108007;-79
2024/04/12 00:46:17;;;;;;;9.20;5.80;;;;;;;12.56;50.91;101425.92;101268;1265;1003712;-79
2024/04/12 00:48:45;;;;;;;11.10;6.40;;;;;;;12.56;50.92;101421.39;102905;1265;114875;-79
2024/04/12 00:51:16;;;;;;;11.90;5.90;;;;;;;12.54;51.12;101418.13;102607;1266;138996;-80
2024/04/12 00:53:43;;;;;;;15.40;5.90;;;;;;;12.53;51.07;101413.43;102582;1262;100423;-80
2024/04/12 00:56:12;;;;;;;10.70;5.60;;;;;;;12.53;51.18;101412.39;102595;1263;107192;-80
2024/04/12 00:58:41;;;;;;;11.50;5.90;;;;;;;12.53;51.30;101412.91;102574;1265;100926;-80
2024/04/12 01:01:11;;;;;;;13.10;6.10;;;;;;;12.50;51.33;101405.33;102552;1265;114773;-80
2024/04/12 01:03:47;;;;;;;12.40;6.50;;;;;;;12.51;51.52;101404.41;102850;1265;138947;-80
2024/04/12 01:06:18;;;;;;;14.10;6.20;;;;;;;12.51;51.55;101403.88;102627;1265;100490;-81
2024/04/12 01:08:44;;;;;;;11.60;5.70;;;;;;;12.51;51.70;101404.76;102483;1265;139321;-81
2024/04/12 01:11:12;;;;;;;10.20;5.40;;;;;;;12.50;51.87;101401.47;102529;1260;100513;-81
2024/04/12 01:13:40;;;;;;;14.40;6.30;;;;;;;12.50;51.93;101405.31;102536;1265;114146;-80
2024/04/12 01:16:08;;;;;;;9.90;5.90;;;;;;;12.49;52.01;101404.63;102501;1265;139670;-81
2024/04/12 01:18:35;;;;;;;9.60;5.80;;;;;;;12.50;52.07;101406.02;102457;1268;100455;-81
2024/04/12 01:21:10;;;;;;;12.40;6.10;;;;;;;12.51;52.13;101409.12;102491;1261;138286;-79
2024/04/12 01:23:37;;;;;;;12.90;5.90;;;;;;;12.50;52.20;101412.11;103535;1260;100417;-80
2024/04/12 01:26:04;;;;;;;10.40;6.70;;;;;;;12.51;52.33;101414.00;103845;1265;113673;-80
2024/04/12 01:28:35;;;;;;;10.80;6.60;;;;;;;12.54;52.36;101419.50;102641;1261;138378;-80
2024/04/12 01:31:01;;;;;;;11.70;5.70;;;;;;;12.56;52.40;101418.96;102548;1261;100525;-79
2024/04/12 01:33:31;;;;;;;14.10;6.60;;;;;;;12.58;52.45;101424.86;102435;1265;139177;-80
2024/04/12 01:36:04;;;;;;;11.20;6.00;;;;;;;12.59;52.55;101424.84;103625;1261;100322;-80
2024/04/12 01:38:31;;;;;;;12.10;6.20;;;;;;;12.61;52.48;101424.09;102405;1263;139765;-80
2024/04/12 01:41:05;;;;;;;11.20;6.70;;;;;;;12.62;52.72;101422.50;102568;1261;106970;-79
2024/04/12 01:43:35;;;;;;;13.20;6.20;;;;;;;12.63;52.70;101425.95;102564;1265;100522;-78
2024/04/12 01:46:04;;;;;;;9.00;5.80;;;;;;;12.66;52.81;101425.35;102447;1265;138556;-79
2024/04/12 01:48:33;;;;;;;8.10;5.10;;;;;;;12.68;52.96;101420.60;102655;1260;100589;-80
2024/04/12 01:51:02;;;;;;;14.10;6.20;;;;;;;12.69;52.79;101416.23;103587;1261;138568;-81
2024/04/12 01:53:29;;;;;;;14.80;6.30;;;;;;;12.72;52.84;101424.88;102599;1261;105902;-80
2024/04/12 01:55:58;;;;;;;10.10;5.90;;;;;;;12.74;53.05;101426.77;102659;1265;100612;-81
2024/04/12 01:58:26;;;;;;;13.20;6.00;;;;;;;12.79;52.93;101425.10;103374;1263;138856;-80
2024/04/12 02:00:53;;;;;;;8.60;5.80;;;;;;;12.81;53.07;101424.17;103297;1261;1003338;-80
2024/04/12 02:03:21;;;;;;;10.80;6.30;;;;;;;12.84;53.00;101429.17;103504;1265;139318;-79
2024/04/12 02:05:49;;;;;;;9.60;5.70;;;;;;;12.85;52.95;101422.33;102676;1265;108460;-79
2024/04/12 02:08:17;;;;;;;11.40;6.00;;;;;;;12.87;53.02;101424.38;102619;1266;101049;-79
2024/04/12 02:10:48;;;;;;;11.80;6.00;;;;;;;12.87;53.09;101412.31;102582;1265;107195;-80
2024/04/12 02:13:17;;;;;;;8.70;5.60;;;;;;;12.89;53.11;101411.75;103943;1260;98982;-80
2024/04/12 02:15:46;;;;;;;10.10;5.90;;;;;;;12.91;53.05;101418.52;102504;1265;138483;-81
2024/04/12 02:18:13;;;;;;;12.30;5.80;;;;;;;12.92;53.08;101425.13;101833;1266;1002580;-81
2024/04/12 02:20:45;;;;;;;9.30;5.50;;;;;;;12.94;52.88;101425.11;102517;1262;139275;-81
2024/04/12 02:23:13;;;;;;;11.50;6.10;;;;;;;12.95;52.97;101425.59;102581;1266;108303;-81
2024/04/12 02:25:41;;;;;;;9.60;5.50;;;;;;;12.95;52.94;101415.47;102652;1265;100561;-81
2024/04/12 02:28:09;;;;;;;12.70;6.20;;;;;;;12.95;53.07;101414.09;102504;1265;138433;-80
2024/04/12 02:30:41;;;;;;;9.10;5.70;;;;;;;12.94;52.98;101416.70;102570;1265;107840;-81
2024/04/12 02:33:08;;;;;;;12.30;6.10;;;;;;;12.93;53.06;101419.88;103949;1260;138497;-84
2024/04/12 02:35:35;;;;;;;9.70;5.70;;;;;;;12.90;53.12;101421.52;102504;1265;107122;-83
2024/04/12 02:38:02;;;;;;;11.90;5.60;;;;;;;12.89;53.07;101424.14;102522;1265;100653;-82
2024/04/12 02:40:29;;;;;;;10.30;6.10;;;;;;;12.85;53.21;101425.65;102393;1261;138290;-83
2024/04/12 02:42:58;;;;;;;8.70;5.90;;;;;;;12.79;53.36;101426.13;102518;1261;106706;-82
2024/04/12 02:45:27;;;;;;;10.60;5.80;;;;;;;12.75;53.56;101430.94;102458;1265;141042;-83
2024/04/12 02:47:54;;;;;;;9.90;6.10;;;;;;;12.68;53.58;101432.30;102533;1265;107093;-82
2024/04/12 02:50:23;;;;;;;11.60;5.90;;;;;;;12.62;53.87;101427.38;102368;1264;139467;-81
2024/04/12 02:52:51;;;;;;;9.40;5.30;;;;;;;12.56;54.11;101425.76;102609;1267;113143;-83
2024/04/12 02:55:18;;;;;;;9.70;5.20;;;;;;;12.53;54.25;101425.30;102599;1266;107117;-83
2024/04/12 02:57:46;;;;;;;9.90;5.70;;;;;;;12.49;54.24;101423.30;102500;1266;139168;-83
2024/04/12 03:00:21;;;;;;;14.70;5.80;;;;;;;12.46;54.50;101431.23;102548;1265;107497;-84
2024/04/12 03:02:48;;;;;;;10.80;5.60;;;;;;;12.41;54.63;101431.85;102440;1264;139446;-81
2024/04/12 03:05:15;;;;;;;8.30;5.80;;;;;;;12.38;54.69;101429.45;102575;1261;113969;-81
2024/04/12 03:07:45;;;;;;;10.00;5.90;;;;;;;12.32;54.92;101424.69;102584;1261;107809;-79
2024/04/12 03:10:12;;;;;;;10.10;5.40;;;;;;;12.27;55.00;101422.88;102459;1265;139198;-78
2024/04/12 03:12:43;;;;;;;8.60;5.60;;;;;;;12.24;55.16;101418.08;102564;1266;107714;-79
2024/04/12 03:15:10;;;;;;;12.10;5.60;;;;;;;12.19;55.38;101420.26;102467;1260;138986;-79
2024/04/12 03:17:37;;;;;;;9.40;5.70;;;;;;;12.17;55.43;101426.21;102575;1265;113359;-79
2024/04/12 03:20:05;;;;;;;12.10;5.30;;;;;;;12.14;55.65;101426.28;102520;1267;106751;-80
2024/04/12 03:22:32;;;;;;;10.60;5.00;;;;;;;12.09;55.68;101421.15;103547;1265;140194;-81
2024/04/12 03:24:59;;;;;;;10.20;5.20;;;;;;;12.07;55.72;101423.12;102471;1266;106750;-80
2024/04/12 03:27:26;;;;;;;8.70;5.20;;;;;;;12.05;55.75;101418.63;102432;1260;139300;-80
2024/04/12 03:29:52;;;;;;;9.80;5.30;;;;;;;12.03;55.88;101414.48;102576;1265;112771;-80
2024/04/12 03:32:19;;;;;;;11.30;5.40;;;;;;;12.02;56.08;101412.23;102510;1260;139303;-80
2024/04/12 03:34:49;;;;;;;12.70;5.50;;;;;;;12.03;56.18;101406.46;102662;1266;100494;-80
2024/04/12 03:37:36;;;;;;;17.30;5.50;;;;;;;12.04;56.23;101402.78;102652;1265;107961;-80
2024/04/12 03:40:03;;;;;;;;;;;;;;;12.01;56.24;101393.78;102525;1261;139245;-81
2024/04/12 03:42:31;;;;;;;6.80;5.20;;;;;;;12.01;56.36;101400.55;102636;1260;113527;-82
2024/04/12 03:44:58;;;;;;;8.10;5.10;;;;;;;12.01;56.45;101402.81;102516;1264;139167;-82
2024/04/12 03:47:25;;;;;;;12.40;5.20;;;;;;;12.04;56.48;101407.48;102651;1264;100627;-81
2024/04/12 03:49:52;;;;;;;10.30;5.20;;;;;;;12.07;56.47;101410.39;102591;1265;107361;-82
2024/04/12 03:52:20;;;;;;;13.30;4.90;;;;;;;12.10;56.58;101413.81;102743;1266;140517;-82
2024/04/12 03:54:47;;;;;;;8.60;5.00;;;;;;;12.12;56.60;101415.87;102825;1264;112602;-79
2024/04/12 03:57:16;;;;;;;7.20;5.00;;;;;;;12.16;56.54;101417.00;103659;1261;137912;-82
2024/04/12 03:59:45;;;;;;;12.30;5.10;;;;;;;12.18;56.53;101416.09;103619;1260;100529;-82
2024/04/12 04:02:15;;;;;;;9.40;5.70;;;;;;;12.20;56.61;101421.10;103962;1260;107760;-79
2024/04/12 04:04:45;;;;;;;12.00;5.70;;;;;;;12.23;56.57;101414.79;103307;1265;100527;-78
2024/04/12 04:07:16;;;;;;;10.00;6.20;;;;;;;12.27;56.60;101418.89;103302;1265;111850;-80
2024/04/12 04:09:45;;;;;;;8.80;6.20;;;;;;;12.29;56.58;101423.90;102405;1260;139356;-82
2024/04/12 04:12:14;;;;;;;9.70;5.90;;;;;;;12.25;56.53;101421.70;102565;1265;100518;-82
2024/04/12 04:14:48;;;;;;;10.60;5.70;;;;;;;12.26;56.62;101420.98;102519;1261;139352;-82
2024/04/12 04:17:18;;;;;;;10.30;6.20;;;;;;;12.25;56.67;101422.25;102596;1266;100603;-80
2024/04/12 04:19:45;;;;;;;9.80;6.40;;;;;;;12.22;56.82;101416.88;102522;1266;113383;-80
2024/04/12 04:22:21;;;;;;;14.80;7.00;;;;;;;12.22;56.75;101424.73;102504;1266;139241;-82
2024/04/12 04:24:47;;;;;;;;;;;;;;;12.28;56.91;101424.09;103257;1260;100518;-83
2024/04/12 04:27:16;;;;;;;12.50;6.50;;;;;;;12.56;56.99;101421.40;102984;1266;125642;-81
2024/04/12 04:29:43;;;;;;;11.80;6.60;;;;;;;13.53;56.58;101412.30;104028;1260;98976;-81
2024/04/12 04:32:11;;;;;;;13.40;6.70;;;;;;;14.74;55.26;101405.72;102920;1265;113206;-83
2024/04/12 04:34:44;;;;;;;13.60;7.10;;;;;;;16.01;53.49;101404.98;102699;1267;138896;-85
2024/04/12 04:37:10;;;;;;;12.50;6.60;;;;;;;17.30;51.69;101401.02;102644;1264;100594;-84
2024/04/12 04:39:49;;;;;;;11.80;6.40;;;;;;;18.55;49.33;101393.77;102577;1260;137583;-85
2024/04/12 04:42:16;;;;;;;12.70;6.00;;;;;;;19.60;47.54;101398.66;102612;1261;100675;-83
2024/04/12 04:44:44;;;;;;;15.20;6.40;;;;;;;20.72;45.94;101397.98;103100;1260;138758;-84
2024/04/12 04:47:14;;;;;;;12.60;6.00;;;;;;;21.81;44.10;101398.65;102591;1260;105771;-85
2024/04/12 04:49:42;;;;;;;9.90;6.10;;;;;;;22.78;42.51;101395.57;102631;1260;100594;-85
2024/04/12 04:52:09;;;;;;;15.00;7.60;;;;;;;23.82;41.16;101394.63;102404;1261;139382;-86
2024/04/12 04:54:39;;;;;;;10.70;6.20;;;;;;;24.66;39.25;101390.45;102567;1260;100487;-85
2024/04/12 04:57:07;;;;;;;11.20;6.30;;;;;;;25.48;37.86;101380.05;102489;1260;138545;-83
2024/04/12 04:59:35;;;;;;;14.10;6.40;;;;;;;26.26;36.69;101384.42;102498;1265;108324;-66
2024/04/12 05:02:02;;;;;;;18.30;10.60;;;;;;;27.02;35.88;101378.23;103277;1260;99122;-66
2024/04/12 05:04:31;;;;;;;19.20;11.70;;;;;;;27.99;34.65;101388.70;103830;1260;138498;-65
2024/04/12 05:06:59;;;;;;;17.90;8.90;;;;;;;28.71;33.36;101393.38;103598;1265;98597;-65
2024/04/12 05:09:27;;;;;;;15.80;8.10;;;;;;;29.47;32.07;101394.70;102532;1265;138776;-65
2024/04/12 05:11:55;;;;;;;16.50;8.30;;;;;;;29.99;31.03;101393.29;103671;1261;107498;-64
2024/04/12 05:14:54;;;;;;;15.30;7.90;;;;;;;30.84;30.35;101394.30;102943;1260;138899;-66
2024/04/12 05:17:21;;;;;;;12.40;6.90;;;;;;;31.50;29.27;101392.11;102774;1265;109455;-65
2024/04/12 05:19:49;;;;;;;10.40;6.20;;;;;;;32.17;28.34;101396.42;102557;1267;100604;-65
2024/04/12 05:22:19;;;;;;;14.60;6.50;;;;;;;32.72;27.59;101394.77;102576;1260;138646;-64
2024/04/12 05:24:46;;;;;;;11.60;5.50;;;;;;;33.31;26.64;101395.34;103693;1264;99776;-64
2024/04/12 05:27:13;;;;;;;11.90;5.40;;;;;;;33.82;26.12;101393.44;102444;1267;139260;-66
2024/04/12 05:29:41;;;;;;;12.70;5.30;;;;;;;34.21;25.39;101395.52;102909;1260;100532;-65
2024/04/12 05:32:09;;;;;;;9.60;5.20;;;;;;;34.51;24.84;101394.71;103193;1260;100537;-67
2024/04/12 05:34:37;;;;;;;9.70;5.20;;;;;;;34.71;24.19;101391.90;102401;1260;138282;-65
2024/04/12 05:37:04;;;;;;;13.30;5.20;;;;;;;34.94;23.85;101387.19;102455;1261;100618;-67
2024/04/12 05:39:32;;;;;;;10.10;5.10;;;;;;;35.45;23.49;101385.07;102429;1260;138585;-66
2024/04/12 05:41:59;;;;;;;9.60;5.40;;;;;;;36.03;22.97;101384.95;102541;1265;100531;-66
2024/04/12 05:44:27;;;;;;;12.00;5.30;;;;;;;36.40;22.43;101388.30;102374;1265;138677;-64
2024/04/12 05:46:54;;;;;;;10.90;5.10;;;;;;;36.57;21.90;101388.55;104032;1260;107896;-65
2024/04/12 05:49:22;;;;;;;18.10;4.80;;;;;;;36.64;21.48;101391.73;104035;1260;99591;-65
2024/04/12 05:51:49;;;;;;;9.10;5.00;;;;;;;36.70;21.19;101394.38;103898;1260;138434;-66
2024/04/12 05:54:16;;;;;;;10.00;5.30;;;;;;;36.95;21.16;101389.02;103922;1261;101655;-65
2024/04/12 05:56:46;;;;;;;9.80;4.90;;;;;;;37.33;20.64;101382.94;103901;1260;138823;-65
2024/04/12 05:59:14;;;;;;;9.50;5.00;;;;;;;37.50;20.39;101382.02;103990;1260;106283;-65
2024/04/12 06:01:43;;;;;;;9.80;4.30;;;;;;;37.93;20.25;101387.42;103986;1260;100166;-65
2024/04/12 06:04:10;;;;;;;9.10;5.00;;;;;;;38.51;19.87;101389.38;103940;1261;138409;-65
2024/04/12 06:06:38;;;;;;;8.90;4.90;;;;;;;38.67;19.35;101390.17;103999;1262;100529;-66
2024/04/12 06:09:05;;;;;;;8.40;4.40;;;;;;;38.85;19.13;101390.45;103910;1260;139432;-65
2024/04/12 06:11:37;;;;;;;12.30;4.60;;;;;;;39.05;18.84;101382.97;103702;1261;106488;-65
2024/04/12 06:14:05;;;;;;;8.50;4.70;;;;;;;39.25;18.71;101384.59;102649;1264;100620;-65
2024/04/12 06:16:32;;;;;;;10.30;4.60;;;;;;;39.77;18.66;101386.52;102463;1265;138724;-64
2024/04/12 06:19:02;;;;;;;9.30;4.90;;;;;;;39.90;18.20;101382.63;102426;1261;100610;-66
2024/04/12 06:21:30;;;;;;;11.80;4.70;;;;;;;39.91;18.03;101385.90;103909;1260;138463;-66
2024/04/12 06:23:59;;;;;;;8.20;4.60;;;;;;;39.93;17.90;101386.64;103677;1260;105115;-65
2024/04/12 06:26:26;;;;;;;10.30;4.60;;;;;;;39.84;17.68;101387.80;103933;1260;140304;-65
2024/04/12 06:28:55;;;;;;;15.20;4.90;;;;;;;39.82;17.85;101391.84;103504;1260;98655;-66
2024/04/12 06:31:34;;;;;;;7.60;4.60;;;;;;;39.95;17.59;101386.91;102555;1260;101617;-66
2024/04/12 06:34:04;;;;;;;10.00;4.90;;;;;;;40.09;17.20;101383.29;103952;1261;138614;-65
2024/04/12 06:36:33;;;;;;;7.90;4.50;;;;;;;40.23;17.12;101380.25;104053;1260;106576;-65
2024/04/12 06:39:04;;;;;;;9.20;4.40;;;;;;;40.41;16.99;101376.41;102646;1261;138345;-66
2024/04/12 06:41:31;;;;;;;13.30;4.70;;;;;;;40.39;17.19;101376.28;103352;1260;98953;-66
2024/04/12 06:43:58;;;;;;;8.90;4.20;;;;;;;39.76;16.99;101374.08;102596;1260;100426;-67
2024/04/12 06:46:27;;;;;;;11.00;4.90;;;;;;;38.96;17.20;101370.77;103987;1260;138275;-67
2024/04/12 06:48:59;;;;;;;8.50;4.40;;;;;;;38.07;17.61;101367.91;104101;1260;106522;-64
2024/04/12 06:51:27;;;;;;;10.40;3.90;;;;;;;37.01;17.82;101376.61;103518;1260;138402;-66
2024/04/12 06:53:54;;;;;;;13.80;4.50;;;;;;;35.89;18.37;101378.50;102323;1260;139787;-66
2024/04/12 06:56:23;;;;;;;10.50;4.50;;;;;;;34.59;19.22;101379.27;103580;1260;100537;-65
2024/04/12 06:58:50;;;;;;;9.00;4.40;;;;;;;33.33;20.06;101381.94;102142;1266;140140;-68
2024/04/12 07:01:21;;;;;;;6.60;3.90;;;;;;;32.27;20.88;101380.84;103914;1261;106330;-65
2024/04/12 07:03:52;;;;;;;7.80;4.40;;;;;;;31.32;21.65;101378.83;102908;1265;108776;-64
2024/04/12 07:06:20;;;;;;;12.10;5.20;;;;;;;30.67;22.29;101382.00;103983;1260;140271;-64
2024/04/12 07:08:50;;;;;;;9.20;4.40;;;;;;;30.05;22.75;101385.17;104004;1260;109407;-64
2024/04/12 07:11:18;;;;;;;10.30;4.80;;;;;;;29.43;23.44;101387.52;102443;1265;138850;-64
2024/04/12 07:13:49;;;;;;;12.60;4.80;;;;;;;28.85;23.96;101388.05;102550;1260;114165;-64
2024/04/12 07:16:17;;;;;;;7.80;4.80;;;;;;;28.40;24.46;101395.62;102832;1263;108347;-63
2024/04/12 07:18:45;;;;;;;7.20;3.80;;;;;;;27.83;24.93;101392.79;103868;1260;138655;-63
2024/04/12 07:21:22;;;;;;;9.80;5.00;;;;;;;27.25;25.58;101389.20;104058;1260;108066;-63
2024/04/12 07:23:50;;;;;;;8.40;4.00;;;;;;;26.69;26.06;101396.35;103974;1260;138403;-64
2024/04/12 07:26:24;;;;;;;6.70;4.00;;;;;;;26.16;26.37;101399.52;102586;1261;113496;-63
2024/04/12 07:28:57;;;;;;;8.60;4.20;;;;;;;25.59;27.20;101401.30;103942;1260;138503;-65
2024/04/12 07:31:24;;;;;;;9.50;4.40;;;;;;;25.09;28.08;101406.71;104060;1260;98518;-66
2024/04/12 07:33:51;;;;;;;7.40;4.50;;;;;;;24.44;28.66;101413.39;103970;1260;108693;-64
2024/04/12 07:36:18;;;;;;;10.20;4.50;;;;;;;23.94;29.56;101416.55;102429;1265;138590;-65
2024/04/12 07:38:50;;;;;;;7.90;4.10;;;;;;;23.48;30.09;101422.04;102702;1260;113553;-64
2024/04/12 07:41:18;;;;;;;12.60;4.40;;;;;;;23.11;30.74;101421.82;103459;1261;139795;-64
2024/04/12 07:43:46;;;;;;;6.00;4.30;;;;;;;22.73;31.36;101425.66;102911;1260;100541;-64
2024/04/12 07:46:14;;;;;;;8.90;4.70;;;;;;;22.38;32.00;101425.49;104081;1260;107356;-64
2024/04/12 07:48:41;;;;;;;11.90;4.70;;;;;;;22.00;32.52;101427.26;103915;1260;138718;-64
2024/04/12 07:51:10;;;;;;;8.80;4.50;;;;;;;21.65;33.33;101432.19;103928;1260;114103;-64
2024/04/12 07:53:37;;;;;;;8.40;4.80;;;;;;;21.37;33.91;101435.29;103931;1260;138378;-64
2024/04/12 07:56:08;;;;;;;8.50;4.70;;;;;;;21.08;34.19;101435.31;104005;1260;99640;-65
2024/04/12 07:58:40;;;;;;;6.80;3.50;;;;;;;20.90;34.74;101440.29;102748;1265;106841;-65
2024/04/12 08:01:15;;;;;;;7.40;3.30;;;;;;;20.66;35.35;101440.89;104044;1261;98875;-64
2024/04/12 08:03:50;;;;;;;8.10;3.50;;;;;;;20.44;35.94;101442.63;104029;1260;115428;-64
2024/04/12 08:06:36;;;;;;;10.00;2.90;;;;;;;20.25;36.52;101442.95;103890;1260;138388;-64
2024/04/12 08:09:04;;;;;;;6.20;2.50;;;;;;;20.01;36.90;101437.32;103936;1260;99570;-64
2024/04/12 08:11:34;;;;;;;5.80;2.60;;;;;;;19.79;37.35;101433.71;103678;1260;138619;-65
2024/04/12 08:14:06;;;;;;;5.10;2.80;;;;;;;19.61;37.85;101432.69;104028;1260;98623;-65
2024/04/12 08:16:35;;;;;;;6.80;2.30;;;;;;;19.43;38.32;101436.75;104050;1261;113259;-64
2024/04/12 08:19:02;;;;;;;7.80;2.30;;;;;;;19.24;38.64;101438.56;102766;1265;138223;-72
2024/04/12 08:21:37;;;;;;;3.10;2.10;;;;;;;19.09;39.12;101441.06;102684;1261;100534;-71
2024/04/12 08:24:09;;;;;;;3.70;1.90;;;;;;;18.93;39.62;101442.02;103298;1260;138756;-72
2024/04/12 08:26:45;;;;;;;5.80;2.20;;;;;;;18.81;40.01;101437.33;104037;1260;98825;-73
2024/04/12 08:29:20;;;;;;;16.60;2.80;;;;;;;18.69;40.14;101437.69;103812;1260;139547;-72
2024/04/12 08:31:47;;;;;;;3.40;2.20;;;;;;;18.58;40.68;101440.66;102945;1261;107410;-72
2024/04/12 08:34:15;;;;;;;6.40;2.40;;;;;;;18.44;41.21;101437.95;102861;1260;101144;-72
2024/04/12 08:36:44;;;;;;;8.00;2.20;;;;;;;18.37;41.64;101435.29;102711;1266;138787;-72
2024/04/12 08:39:25;;;;;;;13.40;2.90;;;;;;;18.27;42.17;101433.98;102883;1260;100472;-72
2024/04/12 08:41:57;;;;;;;6.90;2.00;;;;;;;18.12;42.15;101442.21;102804;1265;138657;-72
2024/04/12 08:44:24;;;;;;;3.70;2.00;;;;;;;17.95;42.53;101439.11;102979;1262;107633;-72
2024/04/12 08:46:51;;;;;;;4.80;2.00;;;;;;;17.87;42.72;101439.28;102831;1262;138580;-73
2024/04/12 08:49:19;;;;;;;4.90;2.10;;;;;;;17.84;43.01;101437.67;102957;1260;107708;-79
2024/04/12 08:51:47;;;;;;;6.50;2.10;;;;;;;17.88;43.14;101435.17;102873;1260;100521;-79
2024/04/12 08:54:15;;;;;;;3.20;2.00;;;;;;;17.92;43.29;101429.40;102670;1265;139616;-77
2024/04/12 08:56:46;;;;;;;4.60;2.60;;;;;;;17.98;43.49;101427.16;102658;1260;106792;-79
2024/04/12 08:59:18;;;;;;;4.90;2.90;;;;;;;18.02;43.51;101428.75;102552;1265;139613;-77
2024/04/12 09:01:45;;;;;;;4.50;3.40;;;;;;;18.09;43.80;101432.46;102068;1265;1003011;-80
2024/04/12 09:04:15;;;;;;;4.10;2.70;;;;;;;18.10;43.73;101434.73;102692;1260;100562;-78
2024/04/12 09:06:48;;;;;;;7.60;3.10;;;;;;;18.10;43.88;101428.55;103333;1261;140263;-79
2024/04/12 09:09:17;;;;;;;3.90;2.90;;;;;;;18.12;44.02;101431.66;102849;1259;106685;-78
2024/04/12 09:11:45;;;;;;;4.90;2.70;;;;;;;18.09;44.07;101432.48;102696;1259;138467;-79
2024/04/12 09:14:19;;;;;;;5.40;3.00;;;;;;;18.08;44.21;101432.70;102869;1261;109783;-78
2024/04/12 09:16:48;;;;;;;11.60;3.40;;;;;;;18.11;44.44;101437.16;102657;1262;137605;-71
2024/04/12 09:19:16;;;;;;;8.00;3.30;;;;;;;18.18;44.54;101438.48;102735;1265;115278;-75
2024/04/12 09:21:55;;;;;;;6.20;3.70;;;;;;;18.18;44.65;101436.52;102779;1265;107418;-79
2024/04/12 09:24:27;;;;;;;4.80;3.20;;;;;;;18.16;44.70;101432.36;102713;1261;138542;-84
2024/04/12 09:26:56;;;;;;;3.40;3.00;;;;;;;18.20;44.91;101429.20;102677;1264;108323;-81
2024/04/12 09:29:27;;;;;;;4.30;3.80;;;;;;;18.27;44.85;101431.16;102681;1265;138768;-82
2024/04/12 09:34:41;;;;;;;6.90;2.80;;;;;;;18.27;45.01;101425.69;102691;1261;106428;-79
2024/04/12 09:40:04;;;;;;;7.00;3.00;;;;;;;18.30;45.14;101418.54;102767;1262;106949;-84
2024/04/12 09:42:44;;;;;;;7.20;3.20;;;;;;;18.31;45.26;101427.30;102655;1259;138451;-83
2024/04/12 09:45:16;;;;;;;3.60;2.70;;;;;;;18.23;45.12;101424.66;102870;1260;114435;-82
2024/04/12 10:37:36;;;;;;;4.50;2.00;;;;;;;19.02;46.54;101392.26;102759;1270;101174;-73
2024/04/12 10:40:05;;;;;;;2.40;1.70;;;;;;;19.07;46.12;101394.63;102548;1267;114592;-74
2024/04/12 10:42:32;;;;;;;2.70;1.90;;;;;;;19.03;45.90;101395.91;103926;1260;138446;-74
2024/04/12 10:45:01;;;;;;;3.20;1.80;;;;;;;18.93;46.03;101398.14;102960;1261;100410;-74
2024/04/12 10:47:29;;;;;;;4.40;2.20;;;;;;;18.82;46.19;101393.04;102670;1265;138755;-74
2024/04/12 10:49:56;;;;;;;4.90;2.50;;;;;;;18.69;46.33;101394.91;103059;1260;100498;-74
2024/04/12 10:52:29;;;;;;;3.60;2.70;;;;;;;18.55;46.63;101393.08;103847;1260;113302;-74
2024/04/12 10:54:57;;;;;;;7.00;3.00;;;;;;;18.40;47.12;101391.45;102770;1260;138523;-75
2024/04/12 10:57:24;;;;;;;6.40;2.50;;;;;;;18.38;47.39;101391.73;103070;1260;101102;-75
2024/04/12 10:59:52;;;;;;;2.30;2.10;;;;;;;18.41;47.67;101393.02;102818;1261;138433;-75
2024/04/12 11:02:21;;;;;;;6.20;1.90;;;;;;;18.35;47.14;101386.59;102698;1260;100618;-70
2024/04/12 11:07:30;;;;;;;3.90;2.10;;;;;;;18.16;47.58;101387.12;102675;1267;107896;-73
2024/04/12 11:09:58;;;;;;;3.80;2.10;;;;;;;18.04;47.72;101379.91;102559;1265;102362;-74
2024/04/12 11:12:28;;;;;;;2.80;2.60;;;;;;;17.91;47.89;101384.90;102266;1265;138567;-72
2024/04/12 11:15:12;;;;;;;8.60;2.10;;;;;;;17.81;48.08;101381.30;102605;1267;100429;-72
2024/04/12 11:31:28;;;;;;;6.20;2.50;;;;;;;17.42;49.48;101365.41;102735;1267;112999;-73
2024/04/12 11:33:56;;;;;;;6.20;2.50;;;;;;;17.36;49.74;101366.16;102591;1267;106712;-72
2024/04/12 11:36:39;;;;;;;5.80;2.60;;;;;;;17.31;49.95;101360.94;102538;1267;138416;-71
2024/04/12 11:39:17;;;;;;;6.70;2.60;;;;;;;17.28;50.14;101358.42;102702;1268;107439;-70
2024/04/12 11:41:46;;;;;;;6.30;2.70;;;;;;;17.40;50.20;101355.63;102582;1267;138659;-70
2024/04/12 11:44:17;;;;;;;4.30;2.70;;;;;;;17.57;50.21;101351.37;102702;1268;116001;-70
2024/04/12 11:46:45;;;;;;;4.40;2.70;;;;;;;17.82;50.11;101354.02;102832;1260;107685;-70
2024/04/12 11:49:12;;;;;;;5.30;2.40;;;;;;;17.97;49.66;101349.61;102753;1262;138175;-70
2024/04/12 11:51:40;;;;;;;4.30;2.00;;;;;;;18.08;49.26;101347.38;102751;1260;107912;-74
2024/04/12 11:54:09;;;;;;;5.50;2.30;;;;;;;18.13;49.10;101344.69;102876;1260;138546;-72
2024/04/12 11:56:37;;;;;;;4.20;2.40;;;;;;;18.11;49.04;101340.70;103033;1260;113400;-72
2024/04/12 11:59:04;;;;;;;6.90;2.60;;;;;;;18.11;49.16;101335.95;103068;1262;138950;-69
2024/04/12 12:01:31;;;;;;;5.60;2.40;;;;;;;18.05;49.08;101335.17;102883;1260;100397;-72
2024/04/12 12:03:59;;;;;;;4.50;2.60;;;;;;;18.01;49.22;101330.81;102891;1259;107990;-77
2024/04/12 12:06:26;;;;;;;6.50;2.40;;;;;;;17.97;49.22;101334.00;103234;1260;138377;-78
2024/04/12 12:08:57;;;;;;;3.70;2.70;;;;;;;17.91;49.16;101335.98;102856;1259;113496;-78
2024/04/12 12:11:24;;;;;;;7.20;2.40;;;;;;;17.88;49.34;101330.88;103569;1260;138921;-74
2024/04/12 12:13:52;;;;;;;5.10;2.60;;;;;;;17.87;49.36;101336.73;102886;1265;101070;-78
2024/04/12 12:16:19;;;;;;;5.90;2.40;;;;;;;17.85;49.33;101328.73;103076;1261;107590;-74
2024/04/12 12:18:47;;;;;;;3.80;2.60;;;;;;;17.86;49.49;101327.45;102755;1261;139066;-72
2024/04/12 12:21:17;;;;;;;9.40;3.00;;;;;;;17.94;49.44;101320.73;102876;1264;113290;-72
2024/04/12 12:23:44;;;;;;;4.70;3.00;;;;;;;18.06;49.44;101318.92;103085;1260;138524;-76
2024/04/12 12:26:14;;;;;;;6.00;3.00;;;;;;;18.15;49.28;101317.50;102753;1265;101056;-74
2024/04/12 12:28:42;;;;;;;5.10;3.20;;;;;;;18.19;49.18;101322.20;102926;1260;106976;-76